Time;durP1;ratioP1;P1;durP2;ratioP2;P2;SDS_P1;SDS_P2;PMS_P1;PMS_P2;Temp;Humidity;BMP_temperature;BMP_pressure;BME280_temperature;BME280_humidity;BME280_pressure;Samples;Min_cycle;Max_cycle;Signal;HPM_P1;HPM_P2
2024/03/06 00:00:21;;;;;;;4.47;2.55;;;10.90;99.90;;;;;;7385917;19;20405;-77
2024/03/06 00:02:49;;;;;;;5.85;2.75;;;10.90;99.90;;;;;;7383910;19;20277;-77
2024/03/06 00:05:18;;;;;;;8.80;2.42;;;11.00;99.90;;;;;;7384233;19;20357;-77
2024/03/06 00:07:47;;;;;;;10.40;2.97;;;11.10;99.90;;;;;;7405920;19;20397;-77
2024/03/06 00:10:15;;;;;;;4.65;2.30;;;11.10;99.90;;;;;;7383153;19;20038;-77
2024/03/06 00:12:44;;;;;;;5.07;2.15;;;11.10;99.90;;;;;;7382809;19;20003;-77
2024/03/06 00:15:15;;;;;;;5.70;2.28;;;11.10;99.90;;;;;;7382591;19;20010;-77
2024/03/06 00:17:44;;;;;;;6.70;2.25;;;11.20;99.90;;;;;;7382670;19;20066;-78
2024/03/06 00:20:14;;;;;;;4.70;1.85;;;11.20;99.90;;;;;;7384979;19;20039;-78
2024/03/06 00:22:43;;;;;;;7.38;2.50;;;11.20;99.90;;;;;;7409686;19;20011;-78
2024/03/06 00:25:11;;;;;;;5.25;2.80;;;11.20;99.90;;;;;;7388147;19;20011;-78
2024/03/06 00:27:40;;;;;;;5.97;2.65;;;11.20;99.90;;;;;;7386205;19;20023;-77
2024/03/06 00:30:10;;;;;;;3.65;2.53;;;11.10;99.90;;;;;;7385643;19;20279;-78
2024/03/06 00:32:41;;;;;;;5.00;2.60;;;11.10;99.90;;;;;;7386831;19;20015;-78
2024/03/06 00:35:11;;;;;;;6.65;3.17;;;11.10;99.90;;;;;;7383482;19;20019;-77
2024/03/06 00:37:40;;;;;;;8.18;2.90;;;11.10;99.90;;;;;;7407415;19;20011;-77
2024/03/06 00:40:11;;;;;;;6.38;3.08;;;11.10;99.90;;;;;;7384207;19;20016;-78
2024/03/06 00:42:41;;;;;;;4.53;2.70;;;11.20;99.90;;;;;;7385286;19;20011;-77
2024/03/06 00:45:10;;;;;;;10.35;2.50;;;11.20;99.90;;;;;;7384599;19;20003;-77
2024/03/06 00:47:41;;;;;;;7.03;2.53;;;11.10;99.90;;;;;;7382009;19;20023;-77
2024/03/06 00:50:11;;;;;;;7.32;2.63;;;11.20;99.90;;;;;;7383655;19;20027;-77
2024/03/06 00:52:40;;;;;;;4.80;2.67;;;11.20;99.90;;;;;;7403855;19;20030;-77
2024/03/06 00:55:09;;;;;;;4.85;2.97;;;11.10;99.90;;;;;;7382831;19;20091;-77
2024/03/06 00:57:38;;;;;;;7.85;2.80;;;11.10;99.90;;;;;;7397448;19;20042;-77
2024/03/06 01:00:10;;;;;;;4.68;3.22;;;11.10;99.90;;;;;;7399633;19;20003;-76
2024/03/06 01:02:42;;;;;;;5.43;3.08;;;11.10;99.90;;;;;;7397654;19;20002;-77
2024/03/06 01:05:11;;;;;;;3.55;2.78;;;11.10;99.90;;;;;;7397871;19;20014;-76
2024/03/06 01:07:40;;;;;;;10.60;3.17;;;11.10;99.90;;;;;;7420507;19;20014;-76
2024/03/06 01:10:10;;;;;;;5.22;2.90;;;11.10;99.90;;;;;;7389726;19;20068;-76
2024/03/06 01:12:39;;;;;;;3.83;2.72;;;11.00;99.90;;;;;;7383051;19;20009;-77
2024/03/06 01:15:09;;;;;;;5.45;2.83;;;11.00;99.90;;;;;;7382213;19;20009;-77
2024/03/06 01:17:37;;;;;;;10.43;2.97;;;11.00;99.90;;;;;;7383527;19;20375;-77
2024/03/06 01:20:11;;;;;;;5.68;3.08;;;11.00;99.90;;;;;;7385880;19;20014;-77
2024/03/06 01:22:39;;;;;;;6.55;2.95;;;11.00;99.90;;;;;;7405460;19;20031;-77
2024/03/06 01:25:09;;;;;;;9.57;3.40;;;11.00;99.90;;;;;;7380958;19;20010;-77
2024/03/06 01:27:40;;;;;;;6.20;3.08;;;11.00;99.90;;;;;;7381179;19;20010;-77
2024/03/06 01:30:10;;;;;;;5.82;3.40;;;11.00;99.90;;;;;;7381460;19;20014;-77
2024/03/06 01:32:38;;;;;;;7.30;2.97;;;10.90;99.90;;;;;;7382045;19;20077;-77
2024/03/06 01:35:10;;;;;;;6.65;3.47;;;10.90;99.90;;;;;;7382562;19;20014;-77
2024/03/06 01:37:39;;;;;;;7.90;3.28;;;10.80;99.90;;;;;;7403946;19;20022;-77
2024/03/06 01:40:10;;;;;;;9.10;3.33;;;10.80;99.90;;;;;;7380333;19;20002;-77
2024/03/06 01:42:39;;;;;;;7.65;3.22;;;10.80;99.90;;;;;;7381344;19;20002;-77
2024/03/06 01:45:09;;;;;;;3.85;2.65;;;10.90;99.90;;;;;;7381737;19;20107;-77
2024/03/06 01:47:38;;;;;;;5.37;2.87;;;10.90;99.90;;;;;;7380440;19;20010;-77
2024/03/06 01:50:12;;;;;;;4.53;2.50;;;11.00;99.90;;;;;;7403131;19;20010;-77
2024/03/06 01:52:42;;;;;;;6.03;3.08;;;10.90;99.90;;;;;;7380714;19;20028;-77
2024/03/06 01:55:12;;;;;;;7.18;2.92;;;11.00;99.90;;;;;;7380238;19;20062;-77
2024/03/06 01:57:42;;;;;;;5.63;2.78;;;11.10;99.90;;;;;;7380597;19;20006;-77
2024/03/06 02:00:13;;;;;;;4.18;2.70;;;11.10;99.90;;;;;;7381075;19;20364;-77
2024/03/06 02:02:44;;;;;;;4.50;2.80;;;11.10;99.90;;;;;;7381549;19;20007;-75
2024/03/06 02:05:15;;;;;;;6.78;2.85;;;11.00;99.90;;;;;;7382577;19;20014;-76
2024/03/06 02:07:45;;;;;;;;;;;10.90;99.90;;;;;;7400995;19;20070;-77
2024/03/06 02:10:14;;;;;;;7.32;2.70;;;11.10;99.90;;;;;;7380059;19;19976;-77
2024/03/06 02:12:45;;;;;;;5.35;2.80;;;10.90;99.90;;;;;;7380430;19;20006;-77
2024/03/06 02:15:15;;;;;;;4.77;3.00;;;11.00;99.90;;;;;;7377727;19;20006;-77
2024/03/06 02:17:46;;;;;;;4.78;2.70;;;11.00;99.90;;;;;;7379908;19;20013;-77
2024/03/06 02:20:17;;;;;;;4.57;2.42;;;10.90;99.90;;;;;;7381061;19;20014;-77
2024/03/06 02:22:48;;;;;;;;;;;10.90;99.90;;;;;;7402247;19;20003;-77
2024/03/06 02:25:19;;;;;;;8.02;3.17;;;11.00;99.90;;;;;;7378481;19;20482;-77
2024/03/06 02:27:48;;;;;;;6.00;3.07;;;11.00;99.90;;;;;;7378942;19;20003;-77
2024/03/06 02:30:17;;;;;;;7.30;3.38;;;11.00;99.90;;;;;;7382434;19;20010;-78
2024/03/06 02:32:46;;;;;;;5.68;3.45;;;10.90;99.90;;;;;;7385439;19;20293;-77
2024/03/06 02:35:15;;;;;;;6.70;4.05;;;10.90;99.90;;;;;;7385579;19;20009;-78
2024/03/06 02:37:44;;;;;;;5.10;3.47;;;10.90;99.90;;;;;;7405860;19;20002;-77
2024/03/06 02:40:15;;;;;;;6.70;3.80;;;11.00;99.90;;;;;;7382892;19;20292;-78
2024/03/06 02:42:44;;;;;;;6.45;3.55;;;11.00;99.90;;;;;;7384659;19;20006;-77
2024/03/06 02:45:13;;;;;;;7.97;3.83;;;11.00;99.90;;;;;;7383209;19;20015;-78
2024/03/06 02:47:42;;;;;;;9.43;3.75;;;11.00;99.90;;;;;;7381309;19;20027;-78
2024/03/06 02:50:13;;;;;;;6.05;3.22;;;11.00;99.90;;;;;;7405337;19;20007;-77
2024/03/06 02:52:42;;;;;;;6.88;3.90;;;11.00;99.90;;;;;;7382466;19;20007;-77
2024/03/06 02:55:11;;;;;;;6.70;4.20;;;11.10;99.90;;;;;;7382383;19;20246;-77
2024/03/06 02:57:43;;;;;;;9.88;4.47;;;11.10;99.90;;;;;;7383342;19;20011;-77
2024/03/06 03:00:13;;;;;;;9.32;4.10;;;11.10;99.90;;;;;;7383223;19;20015;-77
2024/03/06 03:02:41;;;;;;;9.18;5.00;;;11.10;99.90;;;;;;7382911;19;20223;-78
2024/03/06 03:05:11;;;;;;;8.18;4.15;;;11.10;99.90;;;;;;7405359;19;20014;-78
2024/03/06 03:07:40;;;;;;;6.50;3.80;;;11.10;99.90;;;;;;7380592;19;20099;-77
2024/03/06 03:10:10;;;;;;;7.70;4.45;;;11.10;99.90;;;;;;7381716;19;20007;-78
2024/03/06 03:12:43;;;;;;;8.82;4.53;;;11.10;99.90;;;;;;7380142;19;20373;-77
2024/03/06 03:15:13;;;;;;;6.15;4.25;;;11.10;99.90;;;;;;7379291;19;20010;-77
2024/03/06 03:17:41;;;;;;;9.70;5.20;;;11.00;99.90;;;;;;7379838;19;20056;-77
2024/03/06 03:20:12;;;;;;;15.38;5.97;;;11.00;99.90;;;;;;7399256;19;20365;-78
2024/03/06 03:22:41;;;;;;;14.27;5.63;;;10.80;99.90;;;;;;7377963;19;20398;-78
2024/03/06 03:25:11;;;;;;;10.80;5.13;;;10.70;99.90;;;;;;7377614;19;20007;-78
2024/03/06 03:27:45;;;;;;;10.48;4.93;;;10.60;99.90;;;;;;7383143;19;20710;-78
2024/03/06 03:30:16;;;;;;;6.47;4.60;;;10.70;99.90;;;;;;7387311;19;20056;-78
2024/03/06 03:32:45;;;;;;;8.52;4.22;;;10.70;99.90;;;;;;7388622;19;20007;-78
2024/03/06 03:35:16;;;;;;;8.48;4.63;;;10.70;99.90;;;;;;7409905;19;20029;-78
2024/03/06 03:37:46;;;;;;;8.30;4.93;;;10.60;99.90;;;;;;7390392;19;20017;-78
2024/03/06 03:40:15;;;;;;;7.80;4.68;;;10.50;99.90;;;;;;7390389;19;20028;-78
2024/03/06 03:42:46;;;;;;;9.63;4.93;;;10.50;99.90;;;;;;7388288;19;20297;-78
2024/03/06 03:45:15;;;;;;;;;;;10.60;99.90;;;;;;7386827;19;20019;-79
2024/03/06 03:47:44;;;;;;;9.93;5.65;;;10.60;99.90;;;;;;7383410;19;20047;-77
2024/03/06 03:50:12;;;;;;;11.57;5.88;;;10.40;99.90;;;;;;7406733;19;20022;-77
2024/03/06 03:52:43;;;;;;;11.60;6.38;;;10.50;99.90;;;;;;7401775;19;20014;-77
2024/03/06 03:55:12;;;;;;;17.23;7.00;;;10.50;99.90;;;;;;7404564;19;20011;-77
2024/03/06 03:57:41;;;;;;;13.45;8.15;;;10.50;99.90;;;;;;7404858;19;20011;-76
2024/03/06 04:00:14;;;;;;;11.75;7.90;;;10.50;99.90;;;;;;7405146;19;20042;-77
2024/03/06 04:02:42;;;;;;;15.65;8.82;;;10.50;99.90;;;;;;7403434;19;20009;-77
2024/03/06 04:05:11;;;;;;;17.15;7.57;;;10.50;99.90;;;;;;7425542;19;20014;-77
2024/03/06 04:07:40;;;;;;;16.10;7.90;;;10.50;99.90;;;;;;7390455;19;20017;-78
2024/03/06 04:10:11;;;;;;;14.15;8.20;;;10.50;99.90;;;;;;7385215;19;20496;-77
2024/03/06 04:12:41;;;;;;;15.07;8.38;;;10.50;99.90;;;;;;7386312;19;20066;-77
2024/03/06 04:15:12;;;;;;;14.43;7.93;;;10.60;99.90;;;;;;7384866;19;20014;-77
2024/03/06 04:17:42;;;;;;;14.43;7.90;;;10.60;99.90;;;;;;7386003;19;20409;-77
2024/03/06 04:20:11;;;;;;;14.90;8.30;;;10.60;99.90;;;;;;7407567;19;20028;-77
2024/03/06 04:22:40;;;;;;;11.48;7.28;;;10.60;99.90;;;;;;7383595;19;20078;-77
2024/03/06 04:25:09;;;;;;;14.18;8.77;;;10.60;99.90;;;;;;7383385;19;20010;-77
2024/03/06 04:27:38;;;;;;;20.05;8.45;;;10.60;99.90;;;;;;7383396;19;20263;-76
2024/03/06 04:30:09;;;;;;;15.57;8.68;;;10.60;99.90;;;;;;7381917;19;20392;-77
2024/03/06 04:32:40;;;;;;;14.90;8.87;;;10.60;99.90;;;;;;7383085;19;20289;-77
2024/03/06 04:35:10;;;;;;;21.63;8.60;;;10.70;99.90;;;;;;7404780;19;20020;-77
2024/03/06 04:37:39;;;;;;;18.27;8.15;;;10.70;99.90;;;;;;7381238;19;20010;-77
2024/03/06 04:40:10;;;;;;;20.13;8.40;;;10.70;99.90;;;;;;7382268;19;20038;-77
2024/03/06 04:42:38;;;;;;;20.58;8.18;;;10.70;99.90;;;;;;7382785;19;20051;-77
2024/03/06 04:45:13;;;;;;;14.75;7.70;;;10.60;99.90;;;;;;7383609;19;20002;-77
2024/03/06 04:47:45;;;;;;;14.40;7.03;;;10.60;99.90;;;;;;7382484;19;20105;-77
2024/03/06 04:50:14;;;;;;;;;;;10.60;99.90;;;;;;7405083;19;20024;-77
2024/03/06 04:52:44;;;;;;;13.23;7.15;;;10.60;99.90;;;;;;7381689;19;19959;-77
2024/03/06 04:55:14;;;;;;;16.13;6.85;;;10.60;99.90;;;;;;7382913;19;20047;-77
2024/03/06 04:57:47;;;;;;;15.05;7.28;;;10.50;99.90;;;;;;7382628;19;19998;-77
2024/03/06 05:00:23;;;;;;;14.00;7.32;;;10.40;99.90;;;;;;7382295;19;20010;-77
2024/03/06 05:02:55;;;;;;;13.98;6.97;;;10.40;99.90;;;;;;7384383;19;20010;-78
2024/03/06 05:05:26;;;;;;;11.38;6.85;;;10.40;99.90;;;;;;7383090;19;20010;-77
2024/03/06 05:07:55;;;;;;;13.90;7.22;;;10.40;99.90;;;;;;7402241;19;20007;-77
2024/03/06 05:10:24;;;;;;;14.38;6.43;;;10.40;99.90;;;;;;7381902;19;20007;-77
2024/03/06 05:12:52;;;;;;;11.02;7.00;;;10.40;99.90;;;;;;7380727;19;20070;-77
2024/03/06 05:15:22;;;;;;;10.70;6.93;;;10.40;99.90;;;;;;7380629;19;20071;-77
2024/03/06 05:17:55;;;;;;;15.75;7.38;;;10.40;99.90;;;;;;7381675;19;20011;-77
2024/03/06 05:20:24;;;;;;;14.73;7.47;;;10.30;99.90;;;;;;7383851;19;20034;-78
2024/03/06 05:22:53;;;;;;;13.18;7.40;;;10.40;99.90;;;;;;7408013;19;20023;-77
2024/03/06 05:25:21;;;;;;;10.77;6.32;;;10.40;99.90;;;;;;7384211;19;20003;-77
2024/03/06 05:27:51;;;;;;;13.48;6.53;;;10.40;99.90;;;;;;7385265;19;20014;-78
2024/03/06 05:30:20;;;;;;;15.82;6.60;;;10.40;99.90;;;;;;7384774;19;20011;-78
2024/03/06 05:32:49;;;;;;;13.32;6.95;;;10.40;99.90;;;;;;7385291;19;20107;-77
2024/03/06 05:35:20;;;;;;;12.15;6.53;;;10.50;99.90;;;;;;7405667;19;20042;-78
2024/03/06 05:37:49;;;;;;;12.20;7.65;;;10.40;99.90;;;;;;7386749;19;20239;-78
2024/03/06 05:40:18;;;;;;;17.20;9.55;;;10.50;99.90;;;;;;7385638;19;20020;-78
2024/03/06 05:42:47;;;;;;;19.20;8.93;;;10.50;99.90;;;;;;7385290;19;20052;-78
2024/03/06 05:45:16;;;;;;;16.55;8.95;;;10.50;99.90;;;;;;7384064;19;20002;-78
2024/03/06 05:47:45;;;;;;;13.10;8.05;;;10.50;99.90;;;;;;7384257;19;20047;-78
2024/03/06 05:50:15;;;;;;;14.52;8.45;;;10.50;99.90;;;;;;7407781;19;20345;-78
2024/03/06 05:52:46;;;;;;;14.68;8.75;;;10.50;99.90;;;;;;7384221;19;20006;-78
2024/03/06 05:55:15;;;;;;;;;;;10.50;99.90;;;;;;7385685;19;20018;-78
2024/03/06 05:57:46;;;;;;;17.08;6.38;;;10.60;99.90;;;;;;7384074;19;19914;-78
2024/03/06 06:00:17;;;;;;;10.75;6.32;;;10.50;99.90;;;;;;7385057;19;20067;-78
2024/03/06 06:02:49;;;;;;;11.82;6.50;;;10.50;99.90;;;;;;7383761;19;20017;-78
2024/03/06 06:05:19;;;;;;;;;;;10.50;99.90;;;;;;7404795;19;20007;-78
2024/03/06 06:07:51;;;;;;;17.25;7.93;;;10.50;99.90;;;;;;7381074;19;20102;-77
2024/03/06 06:10:19;;;;;;;;;;;10.40;99.90;;;;;;7385205;19;19999;-78
2024/03/06 06:12:48;;;;;;;18.25;7.88;;;10.50;99.90;;;;;;7385812;19;19943;-78
2024/03/06 06:15:17;;;;;;;19.48;7.55;;;10.40;99.90;;;;;;7384761;19;20037;-78
2024/03/06 06:17:46;;;;;;;16.05;7.78;;;10.40;99.90;;;;;;7380610;19;20049;-77
2024/03/06 06:20:16;;;;;;;45.15;11.60;;;10.40;99.90;;;;;;7401741;19;20248;-78
2024/03/06 06:22:56;;;;;;;80.80;15.00;;;10.50;99.90;;;;;;7390342;19;20051;-78
2024/03/06 06:25:39;;;;;;;101.05;38.45;;;10.40;99.90;;;;;;7390333;19;20007;-80
2024/03/06 06:28:10;;;;;;;21.80;9.23;;;10.50;99.90;;;;;;7386222;19;20027;-77
2024/03/06 06:30:39;;;;;;;14.27;7.80;;;10.50;99.90;;;;;;7388574;19;20082;-80
2024/03/06 06:33:08;;;;;;;26.23;9.82;;;10.40;99.90;;;;;;7389997;19;20025;-81
2024/03/06 06:35:37;;;;;;;23.98;9.32;;;10.50;99.90;;;;;;7390337;19;20011;-81
2024/03/06 06:38:09;;;;;;;22.90;10.10;;;10.50;99.90;;;;;;7412031;19;20046;-79
2024/03/06 06:40:38;;;;;;;24.70;10.07;;;10.50;99.90;;;;;;7392910;19;20027;-79
2024/03/06 06:43:08;;;;;;;19.58;9.63;;;10.50;99.90;;;;;;7392027;19;20026;-81
2024/03/06 06:45:37;;;;;;;20.13;8.65;;;10.50;99.90;;;;;;7395167;19;20034;-80
2024/03/06 06:48:06;;;;;;;23.48;9.95;;;10.50;99.90;;;;;;7396774;19;20014;-80
2024/03/06 06:50:35;;;;;;;22.38;9.23;;;10.50;99.90;;;;;;7405281;19;20014;-80
2024/03/06 06:53:04;;;;;;;15.65;9.55;;;10.50;99.90;;;;;;7426517;19;20006;-79
2024/03/06 06:55:36;;;;;;;24.60;10.52;;;10.50;99.90;;;;;;7406550;19;20011;-79
2024/03/06 06:58:04;;;;;;;;;;;10.60;99.90;;;;;;7407292;19;20010;-79
2024/03/06 07:00:34;;;;;;;17.30;8.95;;;10.50;99.90;;;;;;7406320;19;19918;-80
2024/03/06 07:03:11;;;;;;;20.40;9.68;;;10.40;99.90;;;;;;7406478;19;20007;-80
2024/03/06 07:05:43;;;;;;;22.48;10.90;;;10.40;99.90;;;;;;7394769;19;20015;-80
2024/03/06 07:08:12;;;;;;;18.05;9.82;;;10.50;99.90;;;;;;7407520;19;20011;-80
2024/03/06 07:10:46;;;;;;;23.27;10.68;;;10.40;99.90;;;;;;7385892;19;20034;-80
2024/03/06 07:13:15;;;;;;;22.75;10.65;;;10.40;99.90;;;;;;7385120;19;20030;-81
2024/03/06 07:15:44;;;;;;;24.70;10.57;;;10.40;99.90;;;;;;7386266;19;20011;-79
2024/03/06 07:18:12;;;;;;;25.88;10.85;;;10.40;99.90;;;;;;7387134;19;20046;-78
2024/03/06 07:20:43;;;;;;;19.40;10.45;;;10.50;99.90;;;;;;7389516;19;20010;-79
2024/03/06 07:23:11;;;;;;;20.48;10.80;;;10.50;99.90;;;;;;7404617;19;20007;-79
2024/03/06 07:25:47;;;;;;;19.08;10.40;;;10.50;99.90;;;;;;7385116;19;20018;-80
2024/03/06 07:28:16;;;;;;;25.30;10.13;;;10.50;99.90;;;;;;7383790;19;20006;-80
2024/03/06 07:30:47;;;;;;;21.15;10.10;;;10.50;99.90;;;;;;7384883;19;20007;-80
2024/03/06 07:33:15;;;;;;;21.17;10.20;;;10.60;99.90;;;;;;7387223;19;20055;-79
2024/03/06 07:35:44;;;;;;;26.45;10.18;;;10.60;99.90;;;;;;7385740;19;20023;-79
2024/03/06 07:38:15;;;;;;;21.92;10.32;;;10.70;99.90;;;;;;7405454;19;20275;-79
2024/03/06 07:40:46;;;;;;;22.85;11.00;;;10.70;99.90;;;;;;7383463;19;20074;-79
2024/03/06 07:43:15;;;;;;;;;;;10.70;99.90;;;;;;7383884;19;19998;-79
2024/03/06 07:45:44;;;;;;;15.88;10.02;;;10.80;99.90;;;;;;7386097;19;19911;-79
2024/03/06 07:48:15;;;;;;;21.67;11.07;;;10.80;99.90;;;;;;7394391;19;20010;-79
2024/03/06 07:50:44;;;;;;;24.02;10.90;;;10.80;99.90;;;;;;7387068;19;20098;-79
2024/03/06 07:53:15;;;;;;;21.00;11.00;;;10.90;99.90;;;;;;7406324;19;20003;-80
2024/03/06 07:55:48;;;;;;;24.23;11.43;;;10.90;99.90;;;;;;7383911;19;20015;-80
2024/03/06 07:58:21;;;;;;;26.17;11.73;;;10.90;99.90;;;;;;7380700;19;20295;-79
2024/03/06 08:00:53;;;;;;;23.42;12.07;;;10.90;99.90;;;;;;7383447;19;20066;-80
2024/03/06 08:03:22;;;;;;;21.05;11.68;;;11.00;99.90;;;;;;7383976;19;20003;-79
2024/03/06 08:05:54;;;;;;;23.13;11.68;;;11.00;99.90;;;;;;7384826;19;20004;-80
2024/03/06 08:08:24;;;;;;;24.98;11.73;;;11.00;99.90;;;;;;7404082;19;20006;-79
2024/03/06 08:10:55;;;;;;;21.83;11.75;;;11.00;99.90;;;;;;7384180;19;20007;-79
2024/03/06 08:13:24;;;;;;;24.00;12.88;;;11.10;99.90;;;;;;7388539;19;20086;-80
2024/03/06 08:15:53;;;;;;;25.25;12.90;;;11.10;99.90;;;;;;7396536;19;20374;-79
2024/03/06 08:18:22;;;;;;;32.25;12.88;;;11.10;99.90;;;;;;7395709;19;20078;-80
2024/03/06 08:20:56;;;;;;;25.75;12.45;;;11.10;99.90;;;;;;7392039;19;20059;-80
2024/03/06 08:23:26;;;;;;;26.77;13.18;;;11.10;99.90;;;;;;7411518;19;20034;-79
2024/03/06 08:25:59;;;;;;;24.15;12.43;;;11.10;99.90;;;;;;7393118;19;20007;-79
2024/03/06 08:28:28;;;;;;;26.63;12.20;;;11.10;99.90;;;;;;7390524;19;20003;-78
2024/03/06 08:30:57;;;;;;;24.50;11.65;;;11.10;99.90;;;;;;7392588;19;20019;-79
2024/03/06 08:33:27;;;;;;;19.92;10.98;;;11.00;99.90;;;;;;7388952;19;20002;-79
2024/03/06 08:35:56;;;;;;;19.67;11.93;;;11.00;99.90;;;;;;7391162;19;20388;-79
2024/03/06 08:38:25;;;;;;;24.50;11.70;;;10.90;99.90;;;;;;7412372;19;20006;-79
2024/03/06 08:40:53;;;;;;;20.17;11.00;;;11.00;99.90;;;;;;7391017;19;20011;-79
2024/03/06 08:43:27;;;;;;;19.65;11.23;;;11.00;99.90;;;;;;7390221;19;20003;-79
2024/03/06 08:45:56;;;;;;;19.33;10.60;;;11.00;99.90;;;;;;7392317;19;20377;-79
2024/03/06 08:48:26;;;;;;;22.45;10.52;;;11.00;99.90;;;;;;7388820;19;20420;-80
2024/03/06 08:50:55;;;;;;;19.02;9.95;;;10.80;99.90;;;;;;7386840;19;20000;-80
2024/03/06 08:53:28;;;;;;;16.80;8.98;;;10.80;99.90;;;;;;7408852;19;20030;-80
2024/03/06 08:55:57;;;;;;;16.30;8.93;;;10.70;99.90;;;;;;7387387;19;20007;-79
2024/03/06 08:58:29;;;;;;;16.70;7.93;;;10.80;99.90;;;;;;7392746;19;20014;-80
2024/03/06 09:01:01;;;;;;;13.95;7.82;;;10.80;99.90;;;;;;7391039;19;20015;-80
2024/03/06 09:03:31;;;;;;;22.90;8.43;;;10.60;99.90;;;;;;7387280;19;20034;-80
2024/03/06 09:06:02;;;;;;;14.20;7.57;;;10.70;99.90;;;;;;7387250;19;20013;-80
2024/03/06 09:08:31;;;;;;;;;;;10.60;99.90;;;;;;7409182;19;20010;-80
2024/03/06 09:11:00;;;;;;;18.05;8.15;;;10.60;99.90;;;;;;7388167;19;19907;-80
2024/03/06 09:13:39;;;;;;;15.25;8.50;;;10.60;99.90;;;;;;7392549;19;20006;-79
2024/03/06 09:16:18;;;;;;;15.00;8.43;;;10.60;99.90;;;;;;7391363;19;20042;-80
2024/03/06 09:18:49;;;;;;;17.58;8.48;;;10.70;99.90;;;;;;7390276;19;20029;-80
2024/03/06 09:21:26;;;;;;;14.73;9.38;;;10.70;99.90;;;;;;7389728;19;20034;-80
2024/03/06 09:24:25;;;;;;;;;;;;;;;;;;;;;
2024/03/06 09:27:09;;;;;;;18.58;8.82;;;10.80;99.90;;;;;;7356681;19;20169;-80
2024/03/06 09:29:47;;;;;;;20.30;8.95;;;11.00;99.90;;;;;;7390519;19;20013;-81
2024/03/06 09:32:40;;;;;;;21.10;7.70;;;11.10;99.90;;;;;;7415190;19;20010;-80
2024/03/06 09:35:23;;;;;;;16.70;7.50;;;11.20;99.90;;;;;;7394672;19;20015;-80
2024/03/06 09:38:21;;;;;;;12.48;7.43;;;10.90;99.90;;;;;;7394316;19;20014;-80
2024/03/06 09:43:58;;;;;;;16.55;8.68;;;11.00;99.90;;;;;;7395634;19;20024;-80
2024/03/06 09:46:36;;;;;;;11.30;6.47;;;11.10;99.90;;;;;;7395360;19;20002;-80
2024/03/06 09:49:16;;;;;;;12.75;5.65;;;11.10;99.90;;;;;;7396519;19;20111;-81
2024/03/06 09:51:57;;;;;;;13.15;6.15;;;11.20;99.90;;;;;;7404012;19;20006;-80
2024/03/06 09:54:38;;;;;;;12.13;5.88;;;11.30;99.90;;;;;;7407236;19;20017;-80
2024/03/06 09:57:15;;;;;;;10.20;5.97;;;11.30;99.90;;;;;;7405394;19;20030;-80
2024/03/06 10:00:06;;;;;;;11.73;6.25;;;11.40;99.90;;;;;;7404983;19;20007;-80
2024/03/06 10:02:57;;;;;;;8.73;5.82;;;11.50;99.90;;;;;;7426322;19;20059;-80
2024/03/06 10:05:28;;;;;;;;;;;11.70;99.90;;;;;;7391315;19;20007;-81
2024/03/06 10:08:10;;;;;;;11.13;6.15;;;11.80;99.90;;;;;;7385479;19;19918;-80
2024/03/06 10:11:14;;;;;;;;;;;;;;;;;;;;;
2024/03/06 10:13:58;;;;;;;8.32;4.68;;;11.90;99.90;;;;;;7384465;19;20002;-80
2024/03/06 10:16:32;;;;;;;10.02;4.88;;;12.00;99.90;;;;;;7385569;19;20007;-81
2024/03/06 10:19:36;;;;;;;9.25;5.05;;;12.00;99.90;;;;;;7387406;19;20028;-80
2024/03/06 10:22:13;;;;;;;7.32;4.57;;;12.10;99.90;;;;;;7389211;19;20311;-80
2024/03/06 10:25:20;;;;;;;9.02;4.63;;;12.10;99.90;;;;;;7385663;19;20074;-80
2024/03/06 10:31:15;;;;;;;7.10;4.45;;;12.20;99.90;;;;;;7384065;19;20022;-79
2024/03/06 10:34:04;;;;;;;12.80;4.35;;;12.30;99.90;;;;;;7388936;19;20007;-80
2024/03/06 10:46:14;;;;;;;8.88;4.60;;;12.20;99.90;;;;;;7386755;19;20015;-81
2024/03/06 10:49:12;;;;;;;13.60;4.65;;;12.20;99.90;;;;;;7387194;19;20050;-79
2024/03/06 10:55:00;;;;;;;8.57;4.22;;;12.30;99.90;;;;;;7383272;19;20030;-80
2024/03/06 10:57:56;;;;;;;7.38;3.80;;;12.30;99.90;;;;;;7381865;19;20006;-80
2024/03/06 11:03:47;;;;;;;7.32;4.38;;;12.50;99.90;;;;;;7380541;19;20006;-80
2024/03/06 11:09:48;;;;;;;9.35;4.53;;;12.60;99.90;;;;;;7383792;19;20129;-80
2024/03/06 11:16:04;;;;;;;;;;;;;;;;;;;;;
2024/03/06 11:19:16;;;;;;;9.43;3.60;;;12.80;99.90;;;;;;7387262;19;20018;-80
2024/03/06 11:22:11;;;;;;;7.22;3.38;;;12.90;99.90;;;;;;7387324;19;20358;-80
2024/03/06 11:28:34;;;;;;;12.48;3.80;;;13.10;99.90;;;;;;7385123;19;20026;-81
2024/03/06 11:41:34;;;;;;;;;;;;;;;;;;;;;
2024/03/06 11:45:08;;;;;;;;;;;;;;;;;;;;;
2024/03/06 11:48:27;;;;;;;;;;;;;;;;;;;;;
2024/03/06 11:51:38;;;;;;;12.23;3.15;;;13.10;99.90;;;;;;7421425;19;20002;-79
2024/03/06 12:04:45;;;;;;;;;;;;;;;;;;;;;
2024/03/06 12:07:51;;;;;;;6.43;3.60;;;13.10;99.90;;;;;;7416307;19;20051;-81
2024/03/06 12:10:36;;;;;;;7.35;3.60;;;13.20;99.90;;;;;;7414952;19;20003;-79
2024/03/06 12:13:16;;;;;;;8.02;3.85;;;13.20;99.90;;;;;;7419998;19;20017;-80
2024/03/06 12:15:47;;;;;;;8.07;3.55;;;13.30;99.90;;;;;;7421522;19;20002;-81
2024/03/06 12:18:16;;;;;;;7.68;3.80;;;13.30;99.90;;;;;;7418335;19;20078;-80
2024/03/06 12:20:46;;;;;;;7.95;3.60;;;13.40;99.90;;;;;;7439408;19;20441;-81
2024/03/06 12:23:25;;;;;;;4.65;3.35;;;13.50;99.90;;;;;;7419328;19;20011;-80
2024/03/06 12:26:06;;;;;;;10.30;3.58;;;13.50;99.90;;;;;;7423805;19;20085;-80
2024/03/06 12:28:35;;;;;;;5.90;3.10;;;13.50;99.90;;;;;;7422601;19;20026;-80
2024/03/06 12:31:07;;;;;;;6.25;3.08;;;13.60;99.90;;;;;;7423162;19;20006;-80
2024/03/06 12:33:36;;;;;;;7.50;3.55;;;13.60;99.90;;;;;;7423819;19;20003;-80
2024/03/06 12:36:10;;;;;;;4.13;2.78;;;13.60;99.90;;;;;;7422217;19;20038;-80
2024/03/06 12:38:40;;;;;;;9.25;3.00;;;13.60;99.90;;;;;;7446363;19;20010;-82
2024/03/06 12:41:11;;;;;;;5.47;3.23;;;13.60;99.90;;;;;;7427225;19;20003;-80
2024/03/06 12:43:40;;;;;;;;;;;13.60;99.90;;;;;;7433149;19;20010;-81
2024/03/06 12:46:09;;;;;;;4.63;3.10;;;13.60;99.90;;;;;;7437162;19;19922;-78
2024/03/06 12:48:38;;;;;;;6.45;3.33;;;13.50;99.90;;;;;;7406940;19;20007;-79
2024/03/06 12:51:07;;;;;;;7.47;3.30;;;13.50;99.90;;;;;;7409999;19;20046;-79
2024/03/06 12:53:36;;;;;;;3.22;2.70;;;13.50;99.90;;;;;;7430030;19;20015;-80
2024/03/06 12:56:10;;;;;;;4.88;2.85;;;13.60;99.90;;;;;;7407095;19;20044;-79
2024/03/06 12:58:43;;;;;;;4.68;2.85;;;13.80;99.90;;;;;;7403109;19;20007;-81
2024/03/06 13:01:12;;;;;;;9.45;3.15;;;13.90;99.90;;;;;;7398545;19;20002;-80
2024/03/06 13:03:41;;;;;;;9.75;3.05;;;14.10;99.90;;;;;;7396550;19;20002;-80
2024/03/06 13:06:14;;;;;;;10.35;2.97;;;14.10;99.90;;;;;;7394276;19;20018;-81
2024/03/06 13:08:49;;;;;;;6.93;3.17;;;14.20;99.90;;;;;;7415472;19;20018;-79
2024/03/06 13:11:18;;;;;;;5.78;2.80;;;14.20;99.90;;;;;;7394423;19;20003;-80
2024/03/06 13:13:53;;;;;;;5.07;2.60;;;14.30;99.90;;;;;;7393546;19;20048;-80
2024/03/06 13:16:29;;;;;;;5.20;2.75;;;14.20;99.90;;;;;;7391861;19;20026;-80
2024/03/06 13:19:04;;;;;;;4.28;2.33;;;14.20;99.90;;;;;;7395341;19;20010;-81
2024/03/06 13:21:36;;;;;;;6.15;2.95;;;14.20;99.90;;;;;;7393079;19;20011;-80
2024/03/06 13:24:24;;;;;;;9.27;3.13;;;14.10;99.90;;;;;;7395214;19;20023;-80
2024/03/06 13:26:53;;;;;;;6.68;4.05;;;14.00;99.90;;;;;;7391693;19;20039;-81
2024/03/06 13:29:24;;;;;;;12.50;5.35;;;13.90;99.90;;;;;;7414952;19;20003;-80
2024/03/06 13:31:53;;;;;;;;;;;13.70;99.90;;;;;;7397087;19;20015;-80
2024/03/06 13:34:21;;;;;;;10.38;5.45;;;13.70;99.90;;;;;;7392432;19;19929;-81
2024/03/06 13:36:50;;;;;;;8.00;4.93;;;13.60;99.90;;;;;;7389827;19;20003;-79
2024/03/06 13:39:22;;;;;;;8.27;4.68;;;13.60;99.90;;;;;;7389767;19;20381;-80
2024/03/06 13:41:50;;;;;;;;;;;13.50;99.90;;;;;;7391381;19;20034;-79
2024/03/06 13:44:24;;;;;;;9.15;4.40;;;13.50;99.90;;;;;;7412278;19;19917;-80
2024/03/06 13:46:52;;;;;;;8.38;4.10;;;13.50;99.90;;;;;;7390718;19;20383;-80
2024/03/06 13:49:37;;;;;;;6.57;4.30;;;13.50;99.90;;;;;;7389110;19;20058;-80
2024/03/06 13:52:09;;;;;;;13.65;5.35;;;13.50;99.90;;;;;;7389287;19;20010;-79
2024/03/06 13:54:40;;;;;;;10.52;4.53;;;13.50;99.90;;;;;;7387047;19;20013;-79
2024/03/06 13:57:09;;;;;;;6.80;4.28;;;13.60;99.90;;;;;;7388321;19;20026;-79
2024/03/06 13:59:41;;;;;;;9.70;5.07;;;13.60;99.90;;;;;;7411832;19;20014;-80
2024/03/06 14:02:10;;;;;;;9.48;5.15;;;13.60;99.90;;;;;;7388721;19;20007;-80
2024/03/06 14:04:39;;;;;;;9.02;5.15;;;13.70;99.90;;;;;;7389199;19;19998;-81
2024/03/06 14:07:08;;;;;;;9.68;5.45;;;13.70;99.90;;;;;;7392499;19;20280;-80
2024/03/06 14:09:37;;;;;;;12.07;5.05;;;13.80;99.90;;;;;;7391728;19;20006;-80
2024/03/06 14:12:06;;;;;;;9.48;5.47;;;13.80;99.90;;;;;;7389987;19;20011;-81
2024/03/06 14:14:35;;;;;;;12.45;5.50;;;13.80;99.90;;;;;;7410529;19;20013;-81